sensor_id;sensor_type;location;lat;lon;timestamp;P1;durP1;ratioP1;P2;durP2;ratioP2
13075;SDS011;6604;52.484;13.330;2023-04-07T07:48:39;10.30;;;5.57;;
13075;SDS011;6604;52.484;13.330;2023-04-07T07:51:06;7.57;;;5.20;;
13075;SDS011;6604;52.484;13.330;2023-04-07T07:53:33;9.37;;;6.00;;
13075;SDS011;6604;52.484;13.330;2023-04-07T07:55:59;8.67;;;6.00;;
13075;SDS011;6604;52.484;13.330;2023-04-07T07:58:26;8.17;;;5.10;;
13075;SDS011;6604;52.484;13.330;2023-04-07T08:00:55;8.63;;;5.80;;
13075;SDS011;6604;52.484;13.330;2023-04-07T08:03:21;9.10;;;5.80;;
13075;SDS011;6604;52.484;13.330;2023-04-07T08:05:50;9.70;;;5.83;;
13075;SDS011;6604;52.484;13.330;2023-04-07T08:08:16;7.40;;;5.17;;
13075;SDS011;6604;52.484;13.330;2023-04-07T08:10:43;6.37;;;4.97;;
13075;SDS011;6604;52.484;13.330;2023-04-07T08:13:10;7.73;;;4.90;;
13075;SDS011;6604;52.484;13.330;2023-04-07T08:15:38;6.60;;;4.60;;
13075;SDS011;6604;52.484;13.330;2023-04-07T08:18:04;8.30;;;4.50;;
13075;SDS011;6604;52.484;13.330;2023-04-07T08:20:31;6.60;;;3.90;;
13075;SDS011;6604;52.484;13.330;2023-04-07T08:22:59;7.70;;;3.90;;
13075;SDS011;6604;52.484;13.330;2023-04-07T08:25:26;6.10;;;4.07;;
13075;SDS011;6604;52.484;13.330;2023-04-07T08:27:52;8.03;;;4.20;;
13075;SDS011;6604;52.484;13.330;2023-04-07T08:30:19;5.70;;;4.53;;
13075;SDS011;6604;52.484;13.330;2023-04-07T08:32:46;4.90;;;3.50;;
13075;SDS011;6604;52.484;13.330;2023-04-07T08:35:12;6.43;;;3.53;;
13075;SDS011;6604;52.484;13.330;2023-04-07T08:37:39;7.60;;;4.50;;
13075;SDS011;6604;52.484;13.330;2023-04-07T08:40:11;6.07;;;4.10;;
13075;SDS011;6604;52.484;13.330;2023-04-07T08:42:39;9.47;;;4.60;;
13075;SDS011;6604;52.484;13.330;2023-04-07T08:45:07;6.23;;;3.60;;
13075;SDS011;6604;52.484;13.330;2023-04-07T08:47:35;5.87;;;4.20;;
13075;SDS011;6604;52.484;13.330;2023-04-07T08:50:02;5.37;;;3.50;;
13075;SDS011;6604;52.484;13.330;2023-04-07T08:52:32;6.27;;;4.10;;
13075;SDS011;6604;52.484;13.330;2023-04-07T08:54:58;4.20;;;3.57;;
13075;SDS011;6604;52.484;13.330;2023-04-07T08:57:28;5.77;;;4.20;;
13075;SDS011;6604;52.484;13.330;2023-04-07T08:59:55;5.67;;;3.77;;
13075;SDS011;6604;52.484;13.330;2023-04-07T09:02:26;5.77;;;3.73;;
13075;SDS011;6604;52.484;13.330;2023-04-07T09:04:53;5.27;;;3.70;;
13075;SDS011;6604;52.484;13.330;2023-04-07T09:07:21;7.60;;;4.17;;
13075;SDS011;6604;52.484;13.330;2023-04-07T09:09:47;5.83;;;3.90;;
13075;SDS011;6604;52.484;13.330;2023-04-07T09:12:14;6.90;;;4.30;;
13075;SDS011;6604;52.484;13.330;2023-04-07T09:14:42;6.20;;;3.93;;
13075;SDS011;6604;52.484;13.330;2023-04-07T09:17:09;7.30;;;4.13;;
13075;SDS011;6604;52.484;13.330;2023-04-07T09:19:35;4.87;;;3.80;;
13075;SDS011;6604;52.484;13.330;2023-04-07T09:22:02;7.53;;;4.27;;
13075;SDS011;6604;52.484;13.330;2023-04-07T09:24:29;5.67;;;3.93;;
13075;SDS011;6604;52.484;13.330;2023-04-07T09:32:34;3.43;;;2.90;;
13075;SDS011;6604;52.484;13.330;2023-04-07T09:35:02;11.67;;;3.30;;
13075;SDS011;6604;52.484;13.330;2023-04-07T09:37:29;4.37;;;3.00;;
13075;SDS011;6604;52.484;13.330;2023-04-07T09:39:55;4.30;;;3.20;;
13075;SDS011;6604;52.484;13.330;2023-04-07T09:42:22;5.20;;;2.80;;
13075;SDS011;6604;52.484;13.330;2023-04-07T09:44:52;5.57;;;2.70;;
13075;SDS011;6604;52.484;13.330;2023-04-07T09:47:24;3.30;;;2.70;;
13075;SDS011;6604;52.484;13.330;2023-04-07T09:49:52;5.57;;;2.57;;
13075;SDS011;6604;52.484;13.330;2023-04-07T09:52:24;5.23;;;2.73;;
13075;SDS011;6604;52.484;13.330;2023-04-07T09:54:50;4.23;;;2.67;;
13075;SDS011;6604;52.484;13.330;2023-04-07T09:57:18;3.80;;;2.80;;
13075;SDS011;6604;52.484;13.330;2023-04-07T09:59:46;5.67;;;2.90;;
13075;SDS011;6604;52.484;13.330;2023-04-07T10:02:15;4.40;;;3.00;;
13075;SDS011;6604;52.484;13.330;2023-04-07T10:04:43;3.80;;;2.70;;
13075;SDS011;6604;52.484;13.330;2023-04-07T10:07:09;4.07;;;3.00;;
13075;SDS011;6604;52.484;13.330;2023-04-07T10:09:36;4.27;;;2.77;;
13075;SDS011;6604;52.484;13.330;2023-04-07T10:12:03;5.90;;;2.80;;
13075;SDS011;6604;52.484;13.330;2023-04-07T10:14:30;4.97;;;2.60;;
13075;SDS011;6604;52.484;13.330;2023-04-07T10:17:11;3.47;;;2.77;;
13075;SDS011;6604;52.484;13.330;2023-04-07T10:19:44;4.77;;;2.30;;
13075;SDS011;6604;52.484;13.330;2023-04-07T10:22:11;3.50;;;2.40;;
13075;SDS011;6604;52.484;13.330;2023-04-07T10:24:43;4.50;;;2.47;;
13075;SDS011;6604;52.484;13.330;2023-04-07T10:27:13;4.00;;;2.50;;
13075;SDS011;6604;52.484;13.330;2023-04-07T10:29:40;2.90;;;2.60;;
13075;SDS011;6604;52.484;13.330;2023-04-07T10:32:07;4.73;;;2.87;;
13075;SDS011;6604;52.484;13.330;2023-04-07T10:37:21;2.63;;;2.40;;
13075;SDS011;6604;52.484;13.330;2023-04-07T10:39:48;4.03;;;3.07;;
13075;SDS011;6604;52.484;13.330;2023-04-07T10:44:56;3.67;;;2.83;;
13075;SDS011;6604;52.484;13.330;2023-04-07T10:47:24;3.67;;;2.67;;
13075;SDS011;6604;52.484;13.330;2023-04-07T10:52:37;3.83;;;2.70;;
13075;SDS011;6604;52.484;13.330;2023-04-07T11:00:37;3.53;;;2.63;;
13075;SDS011;6604;52.484;13.330;2023-04-07T11:03:08;4.50;;;2.67;;
13075;SDS011;6604;52.484;13.330;2023-04-07T11:05:35;3.30;;;2.57;;
13075;SDS011;6604;52.484;13.330;2023-04-07T11:08:04;3.23;;;2.80;;
13075;SDS011;6604;52.484;13.330;2023-04-07T11:10:31;4.53;;;3.17;;
13075;SDS011;6604;52.484;13.330;2023-04-07T11:13:02;4.93;;;3.07;;
13075;SDS011;6604;52.484;13.330;2023-04-07T11:15:30;4.07;;;2.70;;
13075;SDS011;6604;52.484;13.330;2023-04-07T11:18:14;4.40;;;3.10;;
13075;SDS011;6604;52.484;13.330;2023-04-07T11:20:41;4.27;;;3.10;;
13075;SDS011;6604;52.484;13.330;2023-04-07T11:23:09;4.33;;;2.80;;
13075;SDS011;6604;52.484;13.330;2023-04-07T11:25:36;4.00;;;3.00;;
13075;SDS011;6604;52.484;13.330;2023-04-07T11:28:03;6.73;;;3.47;;
13075;SDS011;6604;52.484;13.330;2023-04-07T11:30:31;6.00;;;3.40;;
13075;SDS011;6604;52.484;13.330;2023-04-07T11:32:58;5.90;;;3.50;;
13075;SDS011;6604;52.484;13.330;2023-04-07T11:35:26;4.53;;;3.40;;
13075;SDS011;6604;52.484;13.330;2023-04-07T11:40:38;5.97;;;3.70;;
13075;SDS011;6604;52.484;13.330;2023-04-07T11:43:14;5.50;;;3.53;;
13075;SDS011;6604;52.484;13.330;2023-04-07T11:45:44;5.03;;;3.70;;
13075;SDS011;6604;52.484;13.330;2023-04-07T11:51:14;4.80;;;3.60;;
13075;SDS011;6604;52.484;13.330;2023-04-07T11:53:42;4.40;;;3.63;;
13075;SDS011;6604;52.484;13.330;2023-04-07T11:56:13;5.67;;;4.20;;
13075;SDS011;6604;52.484;13.330;2023-04-07T11:58:46;5.67;;;3.77;;
13075;SDS011;6604;52.484;13.330;2023-04-07T12:01:16;6.47;;;4.23;;
13075;SDS011;6604;52.484;13.330;2023-04-07T12:03:55;6.17;;;4.40;;
13075;SDS011;6604;52.484;13.330;2023-04-07T12:06:26;5.93;;;4.43;;
13075;SDS011;6604;52.484;13.330;2023-04-07T12:08:54;6.47;;;4.60;;
13075;SDS011;6604;52.484;13.330;2023-04-07T12:11:23;5.47;;;4.00;;
13075;SDS011;6604;52.484;13.330;2023-04-07T12:13:50;5.57;;;4.00;;
13075;SDS011;6604;52.484;13.330;2023-04-07T12:16:17;6.07;;;4.23;;
13075;SDS011;6604;52.484;13.330;2023-04-07T12:18:43;6.37;;;4.30;;
13075;SDS011;6604;52.484;13.330;2023-04-07T12:21:10;6.27;;;4.33;;
13075;SDS011;6604;52.484;13.330;2023-04-07T12:23:37;6.03;;;4.10;;
13075;SDS011;6604;52.484;13.330;2023-04-07T12:26:06;5.87;;;3.60;;
13075;SDS011;6604;52.484;13.330;2023-04-07T12:28:34;5.27;;;4.07;;
13075;SDS011;6604;52.484;13.330;2023-04-07T12:31:02;7.80;;;4.80;;
13075;SDS011;6604;52.484;13.330;2023-04-07T12:33:29;6.47;;;4.27;;
13075;SDS011;6604;52.484;13.330;2023-04-07T12:35:56;5.90;;;4.40;;
13075;SDS011;6604;52.484;13.330;2023-04-07T12:38:23;4.93;;;3.93;;
13075;SDS011;6604;52.484;13.330;2023-04-07T12:40:58;5.77;;;4.10;;
13075;SDS011;6604;52.484;13.330;2023-04-07T12:43:27;5.50;;;4.00;;
13075;SDS011;6604;52.484;13.330;2023-04-07T12:45:55;6.73;;;3.47;;
13075;SDS011;6604;52.484;13.330;2023-04-07T12:48:23;6.13;;;3.80;;
13075;SDS011;6604;52.484;13.330;2023-04-07T12:50:50;4.80;;;3.57;;
13075;SDS011;6604;52.484;13.330;2023-04-07T12:53:17;6.53;;;3.57;;
13075;SDS011;6604;52.484;13.330;2023-04-07T12:55:44;5.07;;;3.63;;
13075;SDS011;6604;52.484;13.330;2023-04-07T12:58:13;4.43;;;3.13;;
13075;SDS011;6604;52.484;13.330;2023-04-07T13:00:42;4.20;;;3.07;;
13075;SDS011;6604;52.484;13.330;2023-04-07T13:03:10;4.47;;;3.50;;
13075;SDS011;6604;52.484;13.330;2023-04-07T13:05:37;4.47;;;3.07;;
13075;SDS011;6604;52.484;13.330;2023-04-07T13:08:03;4.10;;;3.27;;
13075;SDS011;6604;52.484;13.330;2023-04-07T13:10:32;4.97;;;3.13;;
13075;SDS011;6604;52.484;13.330;2023-04-07T13:12:58;3.63;;;2.63;;
13075;SDS011;6604;52.484;13.330;2023-04-07T13:15:25;5.03;;;3.00;;
13075;SDS011;6604;52.484;13.330;2023-04-07T13:17:52;4.43;;;2.90;;
13075;SDS011;6604;52.484;13.330;2023-04-07T13:20:20;4.30;;;3.10;;
13075;SDS011;6604;52.484;13.330;2023-04-07T13:22:47;4.10;;;3.10;;
13075;SDS011;6604;52.484;13.330;2023-04-07T13:25:13;3.33;;;2.80;;
13075;SDS011;6604;52.484;13.330;2023-04-07T13:27:40;3.13;;;2.67;;
13075;SDS011;6604;52.484;13.330;2023-04-07T13:30:07;3.77;;;2.30;;
13075;SDS011;6604;52.484;13.330;2023-04-07T13:32:34;3.37;;;2.70;;
13075;SDS011;6604;52.484;13.330;2023-04-07T13:35:01;2.47;;;2.20;;
13075;SDS011;6604;52.484;13.330;2023-04-07T13:37:28;3.67;;;2.60;;
13075;SDS011;6604;52.484;13.330;2023-04-07T13:39:55;4.87;;;2.83;;
13075;SDS011;6604;52.484;13.330;2023-04-07T13:42:21;4.10;;;2.60;;
13075;SDS011;6604;52.484;13.330;2023-04-07T13:44:48;5.13;;;2.70;;
13075;SDS011;6604;52.484;13.330;2023-04-07T13:47:15;3.67;;;2.70;;
13075;SDS011;6604;52.484;13.330;2023-04-07T13:49:44;4.53;;;2.73;;
13075;SDS011;6604;52.484;13.330;2023-04-07T13:52:10;4.73;;;2.60;;
13075;SDS011;6604;52.484;13.330;2023-04-07T13:54:39;3.33;;;2.83;;
13075;SDS011;6604;52.484;13.330;2023-04-07T13:57:05;3.70;;;2.80;;
13075;SDS011;6604;52.484;13.330;2023-04-07T13:59:32;3.20;;;2.90;;
13075;SDS011;6604;52.484;13.330;2023-04-07T14:01:59;4.73;;;3.47;;
13075;SDS011;6604;52.484;13.330;2023-04-07T14:04:25;6.03;;;3.87;;
13075;SDS011;6604;52.484;13.330;2023-04-07T14:06:52;4.40;;;3.20;;
13075;SDS011;6604;52.484;13.330;2023-04-07T14:09:19;5.77;;;3.63;;
13075;SDS011;6604;52.484;13.330;2023-04-07T14:11:47;4.57;;;3.70;;
13075;SDS011;6604;52.484;13.330;2023-04-07T14:14:14;5.87;;;4.10;;
13075;SDS011;6604;52.484;13.330;2023-04-07T14:16:40;4.57;;;3.50;;
13075;SDS011;6604;52.484;13.330;2023-04-07T14:19:07;4.73;;;3.80;;
13075;SDS011;6604;52.484;13.330;2023-04-07T14:21:34;5.37;;;3.80;;
13075;SDS011;6604;52.484;13.330;2023-04-07T14:24:00;5.50;;;3.53;;
13075;SDS011;6604;52.484;13.330;2023-04-07T14:26:27;4.67;;;3.27;;
13075;SDS011;6604;52.484;13.330;2023-04-07T14:28:55;4.20;;;2.97;;
13075;SDS011;6604;52.484;13.330;2023-04-07T14:31:21;4.73;;;3.40;;
13075;SDS011;6604;52.484;13.330;2023-04-07T14:33:48;5.97;;;3.07;;
13075;SDS011;6604;52.484;13.330;2023-04-07T14:36:14;4.87;;;3.77;;
13075;SDS011;6604;52.484;13.330;2023-04-07T14:38:41;7.23;;;4.60;;
13075;SDS011;6604;52.484;13.330;2023-04-07T14:41:08;6.73;;;4.93;;
13075;SDS011;6604;52.484;13.330;2023-04-07T14:43:35;4.97;;;4.03;;
13075;SDS011;6604;52.484;13.330;2023-04-07T14:46:03;5.73;;;4.20;;
13075;SDS011;6604;52.484;13.330;2023-04-07T14:48:30;5.70;;;3.63;;
13075;SDS011;6604;52.484;13.330;2023-04-07T14:50:56;3.67;;;3.10;;
13075;SDS011;6604;52.484;13.330;2023-04-07T14:53:23;9.13;;;4.07;;
13075;SDS011;6604;52.484;13.330;2023-04-07T14:55:49;4.27;;;3.00;;
13075;SDS011;6604;52.484;13.330;2023-04-07T14:58:16;5.97;;;3.47;;
13075;SDS011;6604;52.484;13.330;2023-04-07T15:00:42;8.80;;;4.90;;
13075;SDS011;6604;52.484;13.330;2023-04-07T15:03:11;6.77;;;4.63;;
13075;SDS011;6604;52.484;13.330;2023-04-07T15:05:38;6.77;;;3.90;;
13075;SDS011;6604;52.484;13.330;2023-04-07T15:08:04;6.97;;;4.33;;
13075;SDS011;6604;52.484;13.330;2023-04-07T15:10:31;5.90;;;4.07;;
13075;SDS011;6604;52.484;13.330;2023-04-07T15:12:59;5.33;;;3.87;;
13075;SDS011;6604;52.484;13.330;2023-04-07T15:15:26;5.60;;;4.20;;
13075;SDS011;6604;52.484;13.330;2023-04-07T15:17:52;7.13;;;4.10;;
13075;SDS011;6604;52.484;13.330;2023-04-07T15:20:20;7.10;;;4.10;;
13075;SDS011;6604;52.484;13.330;2023-04-07T15:22:49;4.93;;;3.33;;
13075;SDS011;6604;52.484;13.330;2023-04-07T15:25:16;6.37;;;3.50;;
13075;SDS011;6604;52.484;13.330;2023-04-07T15:27:43;3.87;;;2.90;;
13075;SDS011;6604;52.484;13.330;2023-04-07T15:30:09;4.53;;;3.10;;
13075;SDS011;6604;52.484;13.330;2023-04-07T15:32:36;3.17;;;2.63;;
13075;SDS011;6604;52.484;13.330;2023-04-07T15:35:03;3.87;;;2.80;;
13075;SDS011;6604;52.484;13.330;2023-04-07T15:37:31;4.80;;;2.67;;
13075;SDS011;6604;52.484;13.330;2023-04-07T15:39:57;3.53;;;3.07;;
13075;SDS011;6604;52.484;13.330;2023-04-07T15:42:24;4.23;;;3.00;;
13075;SDS011;6604;52.484;13.330;2023-04-07T15:44:50;5.83;;;3.50;;
13075;SDS011;6604;52.484;13.330;2023-04-07T15:47:17;5.30;;;3.20;;
13075;SDS011;6604;52.484;13.330;2023-04-07T15:49:43;5.63;;;2.90;;
13075;SDS011;6604;52.484;13.330;2023-04-07T15:52:10;6.10;;;3.67;;
13075;SDS011;6604;52.484;13.330;2023-04-07T15:54:39;5.10;;;3.77;;
13075;SDS011;6604;52.484;13.330;2023-04-07T15:57:05;6.93;;;3.63;;
13075;SDS011;6604;52.484;13.330;2023-04-07T15:59:31;4.33;;;3.30;;
13075;SDS011;6604;52.484;13.330;2023-04-07T16:02:00;5.13;;;3.10;;
13075;SDS011;6604;52.484;13.330;2023-04-07T16:04:26;4.10;;;3.17;;
13075;SDS011;6604;52.484;13.330;2023-04-07T16:06:53;5.17;;;3.20;;
13075;SDS011;6604;52.484;13.330;2023-04-07T16:09:19;4.70;;;3.20;;
13075;SDS011;6604;52.484;13.330;2023-04-07T16:11:47;4.83;;;3.10;;
13075;SDS011;6604;52.484;13.330;2023-04-07T16:14:14;4.67;;;3.53;;
13075;SDS011;6604;52.484;13.330;2023-04-07T16:16:40;6.10;;;3.97;;
13075;SDS011;6604;52.484;13.330;2023-04-07T16:19:08;5.93;;;3.70;;
13075;SDS011;6604;52.484;13.330;2023-04-07T16:21:38;6.90;;;3.43;;
13075;SDS011;6604;52.484;13.330;2023-04-07T16:24:04;5.90;;;3.77;;
13075;SDS011;6604;52.484;13.330;2023-04-07T16:26:31;4.97;;;3.57;;
13075;SDS011;6604;52.484;13.330;2023-04-07T16:28:59;4.67;;;3.93;;
13075;SDS011;6604;52.484;13.330;2023-04-07T16:31:26;8.10;;;4.67;;
13075;SDS011;6604;52.484;13.330;2023-04-07T16:33:52;4.80;;;3.80;;
13075;SDS011;6604;52.484;13.330;2023-04-07T16:36:19;4.97;;;3.70;;
13075;SDS011;6604;52.484;13.330;2023-04-07T16:38:45;4.83;;;3.87;;
13075;SDS011;6604;52.484;13.330;2023-04-07T16:41:13;3.80;;;3.23;;
13075;SDS011;6604;52.484;13.330;2023-04-07T16:43:40;5.00;;;3.50;;
13075;SDS011;6604;52.484;13.330;2023-04-07T16:46:08;4.67;;;3.13;;
13075;SDS011;6604;52.484;13.330;2023-04-07T16:48:39;4.13;;;3.13;;
13075;SDS011;6604;52.484;13.330;2023-04-07T16:51:07;4.87;;;3.60;;
13075;SDS011;6604;52.484;13.330;2023-04-07T16:53:34;4.67;;;3.20;;
13075;SDS011;6604;52.484;13.330;2023-04-07T16:58:42;5.97;;;3.57;;
13075;SDS011;6604;52.484;13.330;2023-04-07T17:01:10;3.53;;;3.20;;
13075;SDS011;6604;52.484;13.330;2023-04-07T17:03:37;5.27;;;3.70;;
13075;SDS011;6604;52.484;13.330;2023-04-07T17:06:04;4.57;;;3.87;;
13075;SDS011;6604;52.484;13.330;2023-04-07T17:08:31;7.67;;;4.50;;
13075;SDS011;6604;52.484;13.330;2023-04-07T17:10:57;4.27;;;3.30;;
13075;SDS011;6604;52.484;13.330;2023-04-07T17:13:24;4.10;;;3.10;;
13075;SDS011;6604;52.484;13.330;2023-04-07T17:15:51;5.03;;;3.57;;
13075;SDS011;6604;52.484;13.330;2023-04-07T17:18:19;4.37;;;3.27;;
13075;SDS011;6604;52.484;13.330;2023-04-07T17:20:46;4.97;;;3.67;;
13075;SDS011;6604;52.484;13.330;2023-04-07T17:23:13;5.47;;;3.50;;
13075;SDS011;6604;52.484;13.330;2023-04-07T17:25:39;5.40;;;3.73;;
13075;SDS011;6604;52.484;13.330;2023-04-07T17:28:06;6.83;;;3.70;;
13075;SDS011;6604;52.484;13.330;2023-04-07T17:30:34;6.20;;;3.60;;
13075;SDS011;6604;52.484;13.330;2023-04-07T17:33:00;5.50;;;3.53;;
13075;SDS011;6604;52.484;13.330;2023-04-07T17:35:29;4.77;;;3.73;;
13075;SDS011;6604;52.484;13.330;2023-04-07T17:37:56;4.00;;;3.43;;
13075;SDS011;6604;52.484;13.330;2023-04-07T17:40:26;4.50;;;3.03;;
13075;SDS011;6604;52.484;13.330;2023-04-07T17:42:55;4.13;;;3.20;;
13075;SDS011;6604;52.484;13.330;2023-04-07T17:45:22;4.60;;;3.47;;
13075;SDS011;6604;52.484;13.330;2023-04-07T17:47:49;5.77;;;3.23;;
13075;SDS011;6604;52.484;13.330;2023-04-07T17:50:16;4.70;;;3.50;;
13075;SDS011;6604;52.484;13.330;2023-04-07T17:52:44;5.03;;;3.53;;
13075;SDS011;6604;52.484;13.330;2023-04-07T17:55:11;5.23;;;3.63;;
13075;SDS011;6604;52.484;13.330;2023-04-07T17:57:38;4.37;;;3.63;;
13075;SDS011;6604;52.484;13.330;2023-04-07T18:00:06;5.07;;;3.77;;
13075;SDS011;6604;52.484;13.330;2023-04-07T18:02:33;4.23;;;3.73;;
13075;SDS011;6604;52.484;13.330;2023-04-07T18:04:59;4.83;;;3.70;;
13075;SDS011;6604;52.484;13.330;2023-04-07T18:07:26;4.90;;;3.43;;
13075;SDS011;6604;52.484;13.330;2023-04-07T18:09:54;3.37;;;3.03;;
13075;SDS011;6604;52.484;13.330;2023-04-07T18:12:22;4.80;;;3.30;;
13075;SDS011;6604;52.484;13.330;2023-04-07T18:14:48;4.97;;;3.23;;
13075;SDS011;6604;52.484;13.330;2023-04-07T18:17:15;3.73;;;2.63;;
13075;SDS011;6604;52.484;13.330;2023-04-07T18:19:42;3.83;;;2.93;;
13075;SDS011;6604;52.484;13.330;2023-04-07T18:22:08;6.77;;;3.47;;
13075;SDS011;6604;52.484;13.330;2023-04-07T18:24:35;4.70;;;3.63;;
13075;SDS011;6604;52.484;13.330;2023-04-07T18:27:04;4.20;;;3.13;;
13075;SDS011;6604;52.484;13.330;2023-04-07T18:29:30;6.53;;;4.00;;
13075;SDS011;6604;52.484;13.330;2023-04-07T18:31:57;6.20;;;3.27;;
13075;SDS011;6604;52.484;13.330;2023-04-07T18:34:24;5.17;;;3.70;;
13075;SDS011;6604;52.484;13.330;2023-04-07T18:36:51;4.93;;;2.80;;
13075;SDS011;6604;52.484;13.330;2023-04-07T18:39:18;5.27;;;3.43;;
13075;SDS011;6604;52.484;13.330;2023-04-07T18:41:44;4.53;;;2.77;;
13075;SDS011;6604;52.484;13.330;2023-04-07T18:44:13;4.10;;;2.97;;
13075;SDS011;6604;52.484;13.330;2023-04-07T18:46:40;3.17;;;2.87;;
13075;SDS011;6604;52.484;13.330;2023-04-07T18:49:07;4.63;;;3.53;;
13075;SDS011;6604;52.484;13.330;2023-04-07T18:51:34;4.33;;;3.10;;
13075;SDS011;6604;52.484;13.330;2023-04-07T18:54:01;5.93;;;3.30;;
13075;SDS011;6604;52.484;13.330;2023-04-07T18:56:28;5.17;;;3.47;;
13075;SDS011;6604;52.484;13.330;2023-04-07T18:58:54;4.00;;;3.20;;
13075;SDS011;6604;52.484;13.330;2023-04-07T19:01:22;4.73;;;3.53;;
13075;SDS011;6604;52.484;13.330;2023-04-07T19:03:49;6.40;;;3.80;;
13075;SDS011;6604;52.484;13.330;2023-04-07T19:06:16;4.20;;;3.60;;
13075;SDS011;6604;52.484;13.330;2023-04-07T19:08:43;6.63;;;4.37;;
13075;SDS011;6604;52.484;13.330;2023-04-07T19:11:09;4.60;;;3.80;;
13075;SDS011;6604;52.484;13.330;2023-04-07T19:13:36;5.97;;;3.40;;
13075;SDS011;6604;52.484;13.330;2023-04-07T19:16:03;5.13;;;3.80;;
13075;SDS011;6604;52.484;13.330;2023-04-07T19:18:33;6.70;;;4.03;;
13075;SDS011;6604;52.484;13.330;2023-04-07T19:21:00;6.07;;;3.80;;
13075;SDS011;6604;52.484;13.330;2023-04-07T19:23:27;3.90;;;3.37;;
13075;SDS011;6604;52.484;13.330;2023-04-07T19:25:54;9.57;;;4.20;;
13075;SDS011;6604;52.484;13.330;2023-04-07T19:28:21;11.97;;;8.13;;
13075;SDS011;6604;52.484;13.330;2023-04-07T19:30:48;7.17;;;4.80;;
13075;SDS011;6604;52.484;13.330;2023-04-07T19:33:14;5.97;;;4.10;;
13075;SDS011;6604;52.484;13.330;2023-04-07T19:35:43;5.63;;;4.03;;
13075;SDS011;6604;52.484;13.330;2023-04-07T19:38:10;4.90;;;3.13;;
13075;SDS011;6604;52.484;13.330;2023-04-07T19:40:36;4.80;;;2.97;;
13075;SDS011;6604;52.484;13.330;2023-04-07T19:43:03;4.90;;;2.67;;
13075;SDS011;6604;52.484;13.330;2023-04-07T19:45:31;4.13;;;3.20;;
13075;SDS011;6604;52.484;13.330;2023-04-07T19:47:57;3.00;;;2.63;;
13075;SDS011;6604;52.484;13.330;2023-04-07T19:50:24;3.57;;;2.90;;
13075;SDS011;6604;52.484;13.330;2023-04-07T19:52:53;3.93;;;2.77;;
13075;SDS011;6604;52.484;13.330;2023-04-07T19:55:20;6.43;;;3.23;;
13075;SDS011;6604;52.484;13.330;2023-04-07T19:57:46;5.73;;;3.63;;
13075;SDS011;6604;52.484;13.330;2023-04-07T20:00:13;5.00;;;3.40;;
13075;SDS011;6604;52.484;13.330;2023-04-07T20:02:40;4.50;;;3.40;;
13075;SDS011;6604;52.484;13.330;2023-04-07T20:05:07;4.50;;;3.50;;
13075;SDS011;6604;52.484;13.330;2023-04-07T20:07:34;5.73;;;3.90;;
13075;SDS011;6604;52.484;13.330;2023-04-07T20:10:02;6.57;;;3.57;;
13075;SDS011;6604;52.484;13.330;2023-04-07T20:12:30;5.00;;;3.43;;
13075;SDS011;6604;52.484;13.330;2023-04-07T20:14:56;5.77;;;3.90;;
13075;SDS011;6604;52.484;13.330;2023-04-07T20:17:25;6.80;;;4.90;;
13075;SDS011;6604;52.484;13.330;2023-04-07T20:19:52;4.73;;;4.17;;
13075;SDS011;6604;52.484;13.330;2023-04-07T20:22:27;4.80;;;3.80;;
13075;SDS011;6604;52.484;13.330;2023-04-07T20:24:57;6.87;;;4.83;;
13075;SDS011;6604;52.484;13.330;2023-04-07T20:27:30;9.57;;;5.50;;
13075;SDS011;6604;52.484;13.330;2023-04-07T20:29:56;7.57;;;4.50;;
13075;SDS011;6604;52.484;13.330;2023-04-07T20:32:26;13.00;;;7.67;;
13075;SDS011;6604;52.484;13.330;2023-04-07T20:34:53;11.63;;;7.30;;
13075;SDS011;6604;52.484;13.330;2023-04-07T20:37:20;9.90;;;6.00;;
13075;SDS011;6604;52.484;13.330;2023-04-07T20:39:47;9.27;;;6.00;;
13075;SDS011;6604;52.484;13.330;2023-04-07T20:42:13;9.07;;;5.73;;
13075;SDS011;6604;52.484;13.330;2023-04-07T20:44:41;9.80;;;6.23;;
13075;SDS011;6604;52.484;13.330;2023-04-07T20:47:08;11.07;;;6.27;;
13075;SDS011;6604;52.484;13.330;2023-04-07T20:49:35;9.70;;;6.07;;
13075;SDS011;6604;52.484;13.330;2023-04-07T20:52:03;7.57;;;5.53;;
13075;SDS011;6604;52.484;13.330;2023-04-07T20:54:30;9.63;;;6.40;;
13075;SDS011;6604;52.484;13.330;2023-04-07T20:57:00;10.67;;;6.63;;
13075;SDS011;6604;52.484;13.330;2023-04-07T20:59:29;9.30;;;6.00;;
13075;SDS011;6604;52.484;13.330;2023-04-07T21:01:58;9.50;;;5.53;;
13075;SDS011;6604;52.484;13.330;2023-04-07T21:04:24;7.33;;;5.57;;
13075;SDS011;6604;52.484;13.330;2023-04-07T21:06:51;8.03;;;5.33;;
13075;SDS011;6604;52.484;13.330;2023-04-07T21:09:18;7.83;;;5.03;;
13075;SDS011;6604;52.484;13.330;2023-04-07T21:11:45;12.83;;;6.30;;
13075;SDS011;6604;52.484;13.330;2023-04-07T21:14:12;11.00;;;6.43;;
13075;SDS011;6604;52.484;13.330;2023-04-07T21:16:40;9.73;;;7.07;;
13075;SDS011;6604;52.484;13.330;2023-04-07T21:19:09;9.57;;;6.47;;
13075;SDS011;6604;52.484;13.330;2023-04-07T21:21:35;8.40;;;5.90;;
13075;SDS011;6604;52.484;13.330;2023-04-07T21:24:03;10.17;;;5.90;;
13075;SDS011;6604;52.484;13.330;2023-04-07T21:26:30;10.23;;;6.43;;
13075;SDS011;6604;52.484;13.330;2023-04-07T21:28:57;12.17;;;7.30;;
13075;SDS011;6604;52.484;13.330;2023-04-07T21:31:24;11.33;;;7.40;;
13075;SDS011;6604;52.484;13.330;2023-04-07T21:34:01;10.97;;;7.00;;
13075;SDS011;6604;52.484;13.330;2023-04-07T21:36:30;12.17;;;6.27;;
13075;SDS011;6604;52.484;13.330;2023-04-07T21:38:57;10.10;;;7.23;;
13075;SDS011;6604;52.484;13.330;2023-04-07T21:41:23;11.80;;;6.80;;
13075;SDS011;6604;52.484;13.330;2023-04-07T21:43:50;12.00;;;6.57;;
13075;SDS011;6604;52.484;13.330;2023-04-07T21:46:16;8.53;;;5.87;;
13075;SDS011;6604;52.484;13.330;2023-04-07T21:48:43;10.90;;;6.37;;
13075;SDS011;6604;52.484;13.330;2023-04-07T21:51:10;10.00;;;5.40;;
13075;SDS011;6604;52.484;13.330;2023-04-07T21:53:38;8.97;;;5.50;;
13075;SDS011;6604;52.484;13.330;2023-04-07T21:56:05;9.87;;;5.60;;
13075;SDS011;6604;52.484;13.330;2023-04-07T21:58:32;10.43;;;6.17;;
13075;SDS011;6604;52.484;13.330;2023-04-07T22:01:01;9.73;;;5.53;;
13075;SDS011;6604;52.484;13.330;2023-04-07T22:03:27;11.27;;;5.40;;
13075;SDS011;6604;52.484;13.330;2023-04-07T22:05:56;7.60;;;5.30;;
13075;SDS011;6604;52.484;13.330;2023-04-07T22:08:22;8.10;;;5.27;;
13075;SDS011;6604;52.484;13.330;2023-04-07T22:10:50;7.43;;;5.40;;
13075;SDS011;6604;52.484;13.330;2023-04-07T22:13:17;8.40;;;4.93;;
13075;SDS011;6604;52.484;13.330;2023-04-07T22:15:44;9.60;;;5.87;;
13075;SDS011;6604;52.484;13.330;2023-04-07T22:18:11;8.10;;;5.50;;
13075;SDS011;6604;52.484;13.330;2023-04-07T22:20:38;8.47;;;5.60;;
13075;SDS011;6604;52.484;13.330;2023-04-07T22:23:04;7.93;;;5.57;;
13075;SDS011;6604;52.484;13.330;2023-04-07T22:25:31;8.83;;;5.37;;
13075;SDS011;6604;52.484;13.330;2023-04-07T22:27:59;9.03;;;5.43;;
13075;SDS011;6604;52.484;13.330;2023-04-07T22:30:26;8.57;;;5.60;;
13075;SDS011;6604;52.484;13.330;2023-04-07T22:32:52;8.63;;;5.93;;
13075;SDS011;6604;52.484;13.330;2023-04-07T22:35:19;9.87;;;6.37;;
13075;SDS011;6604;52.484;13.330;2023-04-07T22:37:45;8.10;;;5.80;;
13075;SDS011;6604;52.484;13.330;2023-04-07T22:40:12;10.73;;;5.40;;
13075;SDS011;6604;52.484;13.330;2023-04-07T22:42:38;7.73;;;5.63;;
13075;SDS011;6604;52.484;13.330;2023-04-07T22:45:07;8.83;;;6.03;;
13075;SDS011;6604;52.484;13.330;2023-04-07T22:47:34;8.33;;;5.80;;
13075;SDS011;6604;52.484;13.330;2023-04-07T22:50:00;9.00;;;6.20;;
13075;SDS011;6604;52.484;13.330;2023-04-07T22:52:27;9.03;;;6.60;;
13075;SDS011;6604;52.484;13.330;2023-04-07T22:54:53;9.43;;;6.10;;
13075;SDS011;6604;52.484;13.330;2023-04-07T22:57:21;8.40;;;5.63;;
13075;SDS011;6604;52.484;13.330;2023-04-07T22:59:48;8.57;;;5.83;;
13075;SDS011;6604;52.484;13.330;2023-04-07T23:02:19;8.90;;;5.97;;
13075;SDS011;6604;52.484;13.330;2023-04-07T23:04:45;8.13;;;5.80;;